sensor_id;sensor_type;location;lat;lon;timestamp;pressure;altitude;pressure_sealevel;temperature;humidity
60871;BME280;46714;50.118;14.462;2022-10-16T00:00:31;98874.03;;;13.02;100.00
60871;BME280;46714;50.118;14.462;2022-10-16T00:02:57;98868.56;;;13.02;100.00
60871;BME280;46714;50.118;14.462;2022-10-16T00:05:23;98871.03;;;13.03;100.00
60871;BME280;46714;50.118;14.462;2022-10-16T00:07:48;98862.03;;;13.03;100.00
60871;BME280;46714;50.118;14.462;2022-10-16T00:10:14;98853.38;;;13.06;100.00
60871;BME280;46714;50.118;14.462;2022-10-16T00:12:39;98854.78;;;13.08;100.00
60871;BME280;46714;50.118;14.462;2022-10-16T00:15:05;98857.75;;;13.07;100.00
60871;BME280;46714;50.118;14.462;2022-10-16T00:17:31;98857.16;;;13.05;100.00
60871;BME280;46714;50.118;14.462;2022-10-16T00:19:56;98853.81;;;13.03;100.00
60871;BME280;46714;50.118;14.462;2022-10-16T00:22:22;98861.69;;;12.99;100.00
60871;BME280;46714;50.118;14.462;2022-10-16T00:24:47;98872.25;;;12.95;100.00
60871;BME280;46714;50.118;14.462;2022-10-16T00:27:14;98870.59;;;12.94;100.00
60871;BME280;46714;50.118;14.462;2022-10-16T00:29:39;98870.81;;;12.93;100.00
60871;BME280;46714;50.118;14.462;2022-10-16T00:32:04;98873.56;;;12.93;100.00
60871;BME280;46714;50.118;14.462;2022-10-16T00:34:30;98877.38;;;12.92;100.00
60871;BME280;46714;50.118;14.462;2022-10-16T00:36:55;98883.66;;;12.92;100.00
60871;BME280;46714;50.118;14.462;2022-10-16T00:39:21;98884.47;;;12.93;100.00
60871;BME280;46714;50.118;14.462;2022-10-16T00:41:47;98885.56;;;12.92;100.00
60871;BME280;46714;50.118;14.462;2022-10-16T00:47:32;98900.06;;;12.92;100.00
60871;BME280;46714;50.118;14.462;2022-10-16T00:50:05;98900.88;;;12.93;100.00
60871;BME280;46714;50.118;14.462;2022-10-16T00:52:34;98900.66;;;12.94;100.00
60871;BME280;46714;50.118;14.462;2022-10-16T00:55:02;98891.38;;;12.95;100.00
60871;BME280;46714;50.118;14.462;2022-10-16T00:57:29;98885.69;;;12.97;100.00
60871;BME280;46714;50.118;14.462;2022-10-16T00:59:55;98890.06;;;12.98;100.00
60871;BME280;46714;50.118;14.462;2022-10-16T01:02:21;98896.34;;;12.98;100.00
60871;BME280;46714;50.118;14.462;2022-10-16T01:04:48;98893.63;;;12.98;100.00
60871;BME280;46714;50.118;14.462;2022-10-16T01:15:27;98889.84;;;12.99;100.00
60871;BME280;46714;50.118;14.462;2022-10-16T01:23:17;98895.28;;;12.99;100.00
60871;BME280;46714;50.118;14.462;2022-10-16T01:28:57;98893.06;;;12.96;100.00
60871;BME280;46714;50.118;14.462;2022-10-16T01:31:39;98894.94;;;12.96;100.00
60871;BME280;46714;50.118;14.462;2022-10-16T01:36:45;98893.75;;;12.92;100.00
60871;BME280;46714;50.118;14.462;2022-10-16T01:39:16;98884.13;;;12.89;100.00
60871;BME280;46714;50.118;14.462;2022-10-16T01:41:58;98885.78;;;12.90;100.00
60871;BME280;46714;50.118;14.462;2022-10-16T01:44:31;98887.09;;;12.88;100.00
60871;BME280;46714;50.118;14.462;2022-10-16T01:46:59;98891.72;;;12.87;100.00
60871;BME280;46714;50.118;14.462;2022-10-16T01:49:26;98889.47;;;12.84;100.00
60871;BME280;46714;50.118;14.462;2022-10-16T01:51:59;98888.63;;;12.84;100.00
60871;BME280;46714;50.118;14.462;2022-10-16T01:54:28;98894.31;;;12.82;100.00
60871;BME280;46714;50.118;14.462;2022-10-16T01:56:57;98890.16;;;12.79;100.00
60871;BME280;46714;50.118;14.462;2022-10-16T01:59:24;98896.47;;;12.80;100.00
60871;BME280;46714;50.118;14.462;2022-10-16T02:01:58;98895.84;;;12.78;100.00
60871;BME280;46714;50.118;14.462;2022-10-16T02:04:37;98901.56;;;12.76;100.00
60871;BME280;46714;50.118;14.462;2022-10-16T02:07:05;98900.28;;;12.79;100.00
60871;BME280;46714;50.118;14.462;2022-10-16T02:09:35;98895.41;;;12.81;100.00
60871;BME280;46714;50.118;14.462;2022-10-16T02:12:04;98891.59;;;12.82;100.00
60871;BME280;46714;50.118;14.462;2022-10-16T02:14:36;98898.13;;;12.81;100.00
60871;BME280;46714;50.118;14.462;2022-10-16T02:17:09;98895.41;;;12.81;100.00
60871;BME280;46714;50.118;14.462;2022-10-16T02:19:36;98893.50;;;12.82;100.00
60871;BME280;46714;50.118;14.462;2022-10-16T02:22:02;98892.69;;;12.81;100.00
60871;BME280;46714;50.118;14.462;2022-10-16T02:24:37;98884.47;;;12.81;100.00
60871;BME280;46714;50.118;14.462;2022-10-16T02:27:11;98886.25;;;12.87;100.00
60871;BME280;46714;50.118;14.462;2022-10-16T02:29:45;98879.25;;;12.91;100.00
60871;BME280;46714;50.118;14.462;2022-10-16T02:32:20;98881.53;;;12.94;100.00
60871;BME280;46714;50.118;14.462;2022-10-16T02:34:48;98891.16;;;12.97;100.00
60871;BME280;46714;50.118;14.462;2022-10-16T02:37:16;98891.97;;;12.97;100.00
60871;BME280;46714;50.118;14.462;2022-10-16T02:39:43;98888.63;;;12.95;100.00
60871;BME280;46714;50.118;14.462;2022-10-16T02:42:14;98896.84;;;12.95;100.00
60871;BME280;46714;50.118;14.462;2022-10-16T02:44:40;98897.91;;;12.94;100.00
60871;BME280;46714;50.118;14.462;2022-10-16T02:47:06;98899.56;;;12.95;100.00
60871;BME280;46714;50.118;14.462;2022-10-16T02:49:31;98902.06;;;12.97;100.00
60871;BME280;46714;50.118;14.462;2022-10-16T02:51:57;98904.81;;;12.97;100.00
60871;BME280;46714;50.118;14.462;2022-10-16T02:54:22;98895.53;;;12.98;100.00
60871;BME280;46714;50.118;14.462;2022-10-16T02:56:48;98899.94;;;12.99;100.00
60871;BME280;46714;50.118;14.462;2022-10-16T02:59:14;98904.53;;;12.98;100.00
60871;BME280;46714;50.118;14.462;2022-10-16T03:01:40;98920.38;;;12.96;100.00
60871;BME280;46714;50.118;14.462;2022-10-16T03:04:05;98910.97;;;12.92;100.00
60871;BME280;46714;50.118;14.462;2022-10-16T03:06:30;98916.06;;;12.89;100.00
60871;BME280;46714;50.118;14.462;2022-10-16T03:08:56;98920.09;;;12.86;100.00
60871;BME280;46714;50.118;14.462;2022-10-16T03:11:21;98924.97;;;12.84;100.00
60871;BME280;46714;50.118;14.462;2022-10-16T03:13:46;98927.09;;;12.82;100.00
60871;BME280;46714;50.118;14.462;2022-10-16T03:16:13;98927.34;;;12.81;100.00
60871;BME280;46714;50.118;14.462;2022-10-16T03:18:38;98934.69;;;12.80;100.00
60871;BME280;46714;50.118;14.462;2022-10-16T03:21:04;98930.53;;;12.77;100.00
60871;BME280;46714;50.118;14.462;2022-10-16T03:23:29;98937.09;;;12.76;100.00
60871;BME280;46714;50.118;14.462;2022-10-16T03:25:55;98941.72;;;12.76;100.00
60871;BME280;46714;50.118;14.462;2022-10-16T03:28:21;98948.22;;;12.75;100.00
60871;BME280;46714;50.118;14.462;2022-10-16T03:30:46;98946.59;;;12.74;100.00
60871;BME280;46714;50.118;14.462;2022-10-16T03:33:12;98944.91;;;12.73;100.00
60871;BME280;46714;50.118;14.462;2022-10-16T03:35:37;98954.19;;;12.72;100.00
60871;BME280;46714;50.118;14.462;2022-10-16T03:38:03;98951.44;;;12.72;100.00
60871;BME280;46714;50.118;14.462;2022-10-16T03:40:29;98958.81;;;12.71;100.00
60871;BME280;46714;50.118;14.462;2022-10-16T03:42:56;98957.97;;;12.71;100.00
60871;BME280;46714;50.118;14.462;2022-10-16T03:45:22;98958.81;;;12.71;100.00
60871;BME280;46714;50.118;14.462;2022-10-16T03:47:47;98957.72;;;12.72;100.00
60871;BME280;46714;50.118;14.462;2022-10-16T03:50:13;98953.09;;;12.73;100.00
60871;BME280;46714;50.118;14.462;2022-10-16T03:52:39;98952.03;;;12.74;100.00
60871;BME280;46714;50.118;14.462;2022-10-16T03:55:05;98955.38;;;12.76;100.00
60871;BME280;46714;50.118;14.462;2022-10-16T03:57:31;98951.56;;;12.77;100.00
60871;BME280;46714;50.118;14.462;2022-10-16T03:59:56;98944.44;;;12.76;100.00
60871;BME280;46714;50.118;14.462;2022-10-16T04:02:23;98936.00;;;12.77;100.00
60871;BME280;46714;50.118;14.462;2022-10-16T04:04:48;98940.63;;;12.77;100.00
60871;BME280;46714;50.118;14.462;2022-10-16T04:07:14;98951.78;;;12.75;100.00
60871;BME280;46714;50.118;14.462;2022-10-16T04:09:39;98950.75;;;12.76;100.00
60871;BME280;46714;50.118;14.462;2022-10-16T04:12:06;98957.25;;;12.75;100.00
60871;BME280;46714;50.118;14.462;2022-10-16T04:14:31;98972.59;;;12.76;100.00
60871;BME280;46714;50.118;14.462;2022-10-16T04:16:56;98972.81;;;12.75;100.00
60871;BME280;46714;50.118;14.462;2022-10-16T04:19:22;98981.00;;;12.75;100.00
60871;BME280;46714;50.118;14.462;2022-10-16T04:21:48;98986.00;;;12.78;100.00
60871;BME280;46714;50.118;14.462;2022-10-16T04:24:14;98995.66;;;12.81;100.00
60871;BME280;46714;50.118;14.462;2022-10-16T04:26:39;98983.88;;;12.80;100.00
60871;BME280;46714;50.118;14.462;2022-10-16T04:29:06;98990.19;;;12.81;100.00
60871;BME280;46714;50.118;14.462;2022-10-16T04:31:32;98990.19;;;12.81;100.00
60871;BME280;46714;50.118;14.462;2022-10-16T04:33:58;98992.06;;;12.80;100.00
60871;BME280;46714;50.118;14.462;2022-10-16T04:36:23;98990.41;;;12.79;100.00
60871;BME280;46714;50.118;14.462;2022-10-16T04:38:49;98991.47;;;12.78;100.00
60871;BME280;46714;50.118;14.462;2022-10-16T04:41:14;98984.34;;;12.77;100.00
60871;BME280;46714;50.118;14.462;2022-10-16T04:43:39;98991.47;;;12.78;100.00
60871;BME280;46714;50.118;14.462;2022-10-16T04:46:05;98993.63;;;12.76;100.00
60871;BME280;46714;50.118;14.462;2022-10-16T04:48:31;98993.63;;;12.76;100.00
60871;BME280;46714;50.118;14.462;2022-10-16T04:50:56;98999.09;;;12.76;100.00
60871;BME280;46714;50.118;14.462;2022-10-16T04:53:22;99000.97;;;12.75;100.00
60871;BME280;46714;50.118;14.462;2022-10-16T04:55:48;98997.41;;;12.75;100.00
60871;BME280;46714;50.118;14.462;2022-10-16T04:58:16;98991.09;;;12.74;100.00
60871;BME280;46714;50.118;14.462;2022-10-16T05:00:42;98999.09;;;12.76;100.00
60871;BME280;46714;50.118;14.462;2022-10-16T05:03:08;98991.94;;;12.75;100.00
60871;BME280;46714;50.118;14.462;2022-10-16T05:05:35;98991.94;;;12.75;100.00
60871;BME280;46714;50.118;14.462;2022-10-16T05:08:01;98995.75;;;12.74;100.00
60871;BME280;46714;50.118;14.462;2022-10-16T05:10:27;98995.50;;;12.75;100.00
60871;BME280;46714;50.118;14.462;2022-10-16T05:12:53;98990.63;;;12.77;100.00
60871;BME280;46714;50.118;14.462;2022-10-16T05:15:18;98986.59;;;12.80;100.00
60871;BME280;46714;50.118;14.462;2022-10-16T05:17:43;98986.16;;;12.83;100.00
60871;BME280;46714;50.118;14.462;2022-10-16T05:20:09;98988.88;;;12.83;100.00
60871;BME280;46714;50.118;14.462;2022-10-16T05:22:35;98984.25;;;12.84;100.00
60871;BME280;46714;50.118;14.462;2022-10-16T05:25:00;98996.00;;;12.84;100.00
60871;BME280;46714;50.118;14.462;2022-10-16T05:27:26;98999.81;;;12.83;100.00
60871;BME280;46714;50.118;14.462;2022-10-16T05:29:51;99006.31;;;12.82;100.00
60871;BME280;46714;50.118;14.462;2022-10-16T05:32:17;99004.66;;;12.81;100.00
60871;BME280;46714;50.118;14.462;2022-10-16T05:34:44;99017.50;;;12.81;100.00
60871;BME280;46714;50.118;14.462;2022-10-16T05:37:10;99021.06;;;12.81;100.00
60871;BME280;46714;50.118;14.462;2022-10-16T05:39:38;99019.97;;;12.82;100.00
60871;BME280;46714;50.118;14.462;2022-10-16T05:42:04;99030.09;;;12.82;100.00
60871;BME280;46714;50.118;14.462;2022-10-16T05:44:30;99039.09;;;12.82;100.00
60871;BME280;46714;50.118;14.462;2022-10-16T05:46:55;99042.09;;;12.81;100.00
60871;BME280;46714;50.118;14.462;2022-10-16T05:49:21;99031.16;;;12.81;100.00
60871;BME280;46714;50.118;14.462;2022-10-16T05:51:46;99035.53;;;12.82;100.00
60871;BME280;46714;50.118;14.462;2022-10-16T05:54:11;99028.16;;;12.82;100.00
60871;BME280;46714;50.118;14.462;2022-10-16T05:56:37;99026.88;;;12.85;100.00
60871;BME280;46714;50.118;14.462;2022-10-16T05:59:03;99027.47;;;12.87;100.00
60871;BME280;46714;50.118;14.462;2022-10-16T06:01:29;99031.63;;;12.89;100.00
60871;BME280;46714;50.118;14.462;2022-10-16T06:03:56;99033.31;;;12.90;100.00
60871;BME280;46714;50.118;14.462;2022-10-16T06:06:22;99036.88;;;12.91;100.00
60871;BME280;46714;50.118;14.462;2022-10-16T06:08:50;99045.06;;;12.91;100.00
60871;BME280;46714;50.118;14.462;2022-10-16T06:11:17;99060.41;;;12.92;100.00
60871;BME280;46714;50.118;14.462;2022-10-16T06:13:48;99063.16;;;12.92;100.00
60871;BME280;46714;50.118;14.462;2022-10-16T06:16:15;99058.50;;;12.92;100.00
60871;BME280;46714;50.118;14.462;2022-10-16T06:18:40;99061.25;;;12.92;100.00
60871;BME280;46714;50.118;14.462;2022-10-16T06:21:10;99063.16;;;12.92;100.00
60871;BME280;46714;50.118;14.462;2022-10-16T06:23:46;99054.69;;;12.93;100.00
60871;BME280;46714;50.118;14.462;2022-10-16T06:26:13;99065.63;;;12.93;100.00
60871;BME280;46714;50.118;14.462;2022-10-16T06:28:40;99061.59;;;12.96;100.00
60871;BME280;46714;50.118;14.462;2022-10-16T06:31:06;99080.50;;;12.97;100.00
60871;BME280;46714;50.118;14.462;2022-10-16T06:33:34;99078.38;;;12.99;100.00
60871;BME280;46714;50.118;14.462;2022-10-16T06:36:00;99083.00;;;12.99;100.00
60871;BME280;46714;50.118;14.462;2022-10-16T06:38:37;99092.63;;;13.02;100.00
60871;BME280;46714;50.118;14.462;2022-10-16T06:41:03;99087.78;;;13.04;100.00
60871;BME280;46714;50.118;14.462;2022-10-16T06:43:30;99102.03;;;13.06;100.00
60871;BME280;46714;50.118;14.462;2022-10-16T06:45:57;99109.16;;;13.07;100.00
60871;BME280;46714;50.118;14.462;2022-10-16T06:48:24;99107.84;;;13.09;100.00
60871;BME280;46714;50.118;14.462;2022-10-16T06:51:07;99105.50;;;13.13;100.00
60871;BME280;46714;50.118;14.462;2022-10-16T06:53:37;99109.41;;;13.17;100.00
60871;BME280;46714;50.118;14.462;2022-10-16T06:56:08;99108.97;;;13.20;100.00
60871;BME280;46714;50.118;14.462;2022-10-16T06:58:35;99105.75;;;13.23;100.00
60871;BME280;46714;50.118;14.462;2022-10-16T07:01:01;99105.28;;;13.26;100.00
60871;BME280;46714;50.118;14.462;2022-10-16T07:03:26;99112.00;;;13.30;100.00
60871;BME280;46714;50.118;14.462;2022-10-16T07:05:51;99117.00;;;13.33;100.00
60871;BME280;46714;50.118;14.462;2022-10-16T07:08:17;99111.06;;;13.36;100.00
60871;BME280;46714;50.118;14.462;2022-10-16T07:10:42;99115.34;;;13.44;100.00
60871;BME280;46714;50.118;14.462;2022-10-16T07:13:09;99137.13;;;13.51;100.00
60871;BME280;46714;50.118;14.462;2022-10-16T07:15:38;99133.34;;;13.52;100.00
60871;BME280;46714;50.118;14.462;2022-10-16T07:18:03;99144.28;;;13.52;100.00
60871;BME280;46714;50.118;14.462;2022-10-16T07:20:29;99135.00;;;13.53;100.00
60871;BME280;46714;50.118;14.462;2022-10-16T07:22:54;99141.88;;;13.55;100.00
60871;BME280;46714;50.118;14.462;2022-10-16T07:25:19;99144.16;;;13.58;100.00
60871;BME280;46714;50.118;14.462;2022-10-16T07:27:45;99141.56;;;13.64;100.00
60871;BME280;46714;50.118;14.462;2022-10-16T07:30:10;99146.53;;;13.67;100.00
60871;BME280;46714;50.118;14.462;2022-10-16T07:32:36;99152.25;;;13.65;100.00
60871;BME280;46714;50.118;14.462;2022-10-16T07:35:03;99156.06;;;13.64;100.00
60871;BME280;46714;50.118;14.462;2022-10-16T07:37:29;99158.78;;;13.64;100.00
60871;BME280;46714;50.118;14.462;2022-10-16T07:39:54;99156.66;;;13.66;100.00
60871;BME280;46714;50.118;14.462;2022-10-16T07:42:20;99164.66;;;13.68;100.00
60871;BME280;46714;50.118;14.462;2022-10-16T07:44:45;99168.09;;;13.75;100.00
60871;BME280;46714;50.118;14.462;2022-10-16T07:47:10;99170.34;;;13.78;100.00
60871;BME280;46714;50.118;14.462;2022-10-16T07:49:36;99166.09;;;13.82;100.00
60871;BME280;46714;50.118;14.462;2022-10-16T07:52:01;99165.16;;;13.88;100.00
60871;BME280;46714;50.118;14.462;2022-10-16T07:54:27;99164.66;;;13.91;100.00
60871;BME280;46714;50.118;14.462;2022-10-16T07:56:52;99162.28;;;13.95;100.00
60871;BME280;46714;50.118;14.462;2022-10-16T07:59:17;99163.97;;;13.96;100.00
60871;BME280;46714;50.118;14.462;2022-10-16T08:01:43;99173.72;;;14.03;100.00
60871;BME280;46714;50.118;14.462;2022-10-16T08:04:09;99170.41;;;14.13;100.00
60871;BME280;46714;50.118;14.462;2022-10-16T08:06:36;99177.41;;;14.21;100.00
60871;BME280;46714;50.118;14.462;2022-10-16T08:09:03;99165.75;;;14.25;100.00
60871;BME280;46714;50.118;14.462;2022-10-16T08:11:28;99157.88;;;14.29;100.00
60871;BME280;46714;50.118;14.462;2022-10-16T08:13:54;99161.47;;;14.30;100.00
60871;BME280;46714;50.118;14.462;2022-10-16T08:16:20;99158.25;;;14.33;100.00
60871;BME280;46714;50.118;14.462;2022-10-16T08:18:46;99165.50;;;14.39;100.00
60871;BME280;46714;50.118;14.462;2022-10-16T08:21:13;99166.66;;;14.43;100.00
60871;BME280;46714;50.118;14.462;2022-10-16T08:23:40;99166.53;;;14.50;100.00
60871;BME280;46714;50.118;14.462;2022-10-16T08:26:06;99175.53;;;14.57;100.00
60871;BME280;46714;50.118;14.462;2022-10-16T08:28:33;99176.44;;;14.62;100.00
60871;BME280;46714;50.118;14.462;2022-10-16T08:31:08;99172.50;;;14.70;100.00
60871;BME280;46714;50.118;14.462;2022-10-16T08:33:35;99163.56;;;14.75;100.00
60871;BME280;46714;50.118;14.462;2022-10-16T08:36:02;99171.63;;;14.81;100.00
60871;BME280;46714;50.118;14.462;2022-10-16T08:38:28;99187.34;;;14.86;100.00
60871;BME280;46714;50.118;14.462;2022-10-16T08:40:55;99192.00;;;14.85;100.00
60871;BME280;46714;50.118;14.462;2022-10-16T08:48:57;99201.53;;;14.95;100.00
60871;BME280;46714;50.118;14.462;2022-10-16T08:51:25;99206.38;;;15.04;100.00
60871;BME280;46714;50.118;14.462;2022-10-16T08:56:46;99215.75;;;15.20;100.00
60871;BME280;46714;50.118;14.462;2022-10-16T08:59:11;99211.19;;;15.26;100.00
60871;BME280;46714;50.118;14.462;2022-10-16T09:01:41;99203.66;;;15.33;100.00
60871;BME280;46714;50.118;14.462;2022-10-16T09:06:46;99206.94;;;15.47;99.69
60871;BME280;46714;50.118;14.462;2022-10-16T09:12:16;99190.75;;;15.62;99.55
60871;BME280;46714;50.118;14.462;2022-10-16T09:20:57;99202.03;;;15.78;98.95
60871;BME280;46714;50.118;14.462;2022-10-16T09:23:44;99202.28;;;15.76;97.51
60871;BME280;46714;50.118;14.462;2022-10-16T09:26:11;99208.00;;;15.75;96.50
60871;BME280;46714;50.118;14.462;2022-10-16T09:28:39;99217.56;;;15.72;97.21
60871;BME280;46714;50.118;14.462;2022-10-16T09:31:04;99207.91;;;15.69;98.55
60871;BME280;46714;50.118;14.462;2022-10-16T09:33:33;99197.41;;;15.66;97.84
60871;BME280;46714;50.118;14.462;2022-10-16T09:36:03;99200.72;;;15.68;98.78
60871;BME280;46714;50.118;14.462;2022-10-16T09:38:32;99212.31;;;15.70;99.51
60871;BME280;46714;50.118;14.462;2022-10-16T09:40:59;99220.41;;;15.77;97.97
60871;BME280;46714;50.118;14.462;2022-10-16T09:43:28;99220.00;;;15.85;97.99
60871;BME280;46714;50.118;14.462;2022-10-16T09:46:24;99221.50;;;15.93;97.66
60871;BME280;46714;50.118;14.462;2022-10-16T09:51:48;99224.25;;;16.27;93.85
60871;BME280;46714;50.118;14.462;2022-10-16T09:54:18;99231.81;;;16.37;93.79
60871;BME280;46714;50.118;14.462;2022-10-16T09:56:47;99233.66;;;16.48;93.63
60871;BME280;46714;50.118;14.462;2022-10-16T09:59:19;99237.88;;;16.55;92.64
60871;BME280;46714;50.118;14.462;2022-10-16T10:01:52;99239.38;;;16.63;92.92
60871;BME280;46714;50.118;14.462;2022-10-16T10:04:22;99235.28;;;16.66;93.90
60871;BME280;46714;50.118;14.462;2022-10-16T10:06:51;99235.09;;;16.72;92.83
60871;BME280;46714;50.118;14.462;2022-10-16T10:09:21;99230.50;;;16.78;92.77
60871;BME280;46714;50.118;14.462;2022-10-16T10:12:16;99227.84;;;16.83;93.50
60871;BME280;46714;50.118;14.462;2022-10-16T10:14:50;99229.53;;;16.84;93.57
60871;BME280;46714;50.118;14.462;2022-10-16T10:17:21;99227.94;;;16.88;91.82
60871;BME280;46714;50.118;14.462;2022-10-16T10:22:38;99233.13;;;17.07;90.86
60871;BME280;46714;50.118;14.462;2022-10-16T10:25:15;99230.81;;;17.21;90.96
60871;BME280;46714;50.118;14.462;2022-10-16T10:27:56;99228.75;;;17.33;88.93
60871;BME280;46714;50.118;14.462;2022-10-16T10:30:59;99229.94;;;17.42;89.99
60871;BME280;46714;50.118;14.462;2022-10-16T10:33:51;99229.50;;;17.50;86.44
60871;BME280;46714;50.118;14.462;2022-10-16T10:38:59;99227.38;;;17.57;87.66
60871;BME280;46714;50.118;14.462;2022-10-16T10:44:26;99218.97;;;17.69;85.89
60871;BME280;46714;50.118;14.462;2022-10-16T10:47:32;99222.59;;;17.75;87.38
60871;BME280;46714;50.118;14.462;2022-10-16T10:50:24;99221.31;;;17.83;84.59
60871;BME280;46714;50.118;14.462;2022-10-16T10:53:02;99205.16;;;17.91;85.12
60871;BME280;46714;50.118;14.462;2022-10-16T10:58:23;99214.09;;;18.09;84.95
60871;BME280;46714;50.118;14.462;2022-10-16T11:01:13;99225.72;;;18.16;84.99
60871;BME280;46714;50.118;14.462;2022-10-16T11:03:59;99223.03;;;18.21;82.25
60871;BME280;46714;50.118;14.462;2022-10-16T11:06:55;99231.63;;;18.30;83.51
60871;BME280;46714;50.118;14.462;2022-10-16T11:09:40;99222.56;;;18.34;83.24
60871;BME280;46714;50.118;14.462;2022-10-16T11:14:49;99234.19;;;18.41;83.10
60871;BME280;46714;50.118;14.462;2022-10-16T11:17:57;99228.41;;;18.43;82.67
60871;BME280;46714;50.118;14.462;2022-10-16T11:20:34;99231.50;;;18.47;82.04
60871;BME280;46714;50.118;14.462;2022-10-16T11:23:15;99224.03;;;18.47;83.02
60871;BME280;46714;50.118;14.462;2022-10-16T11:26:04;99223.72;;;18.43;84.27
60871;BME280;46714;50.118;14.462;2022-10-16T11:28:56;99229.81;;;18.46;83.75
60871;BME280;46714;50.118;14.462;2022-10-16T11:31:25;99230.34;;;18.42;84.93
60871;BME280;46714;50.118;14.462;2022-10-16T11:34:02;99226.22;;;18.40;85.31
60871;BME280;46714;50.118;14.462;2022-10-16T11:39:35;99222.91;;;18.43;84.05
60871;BME280;46714;50.118;14.462;2022-10-16T11:47:40;99231.41;;;18.36;85.14
60871;BME280;46714;50.118;14.462;2022-10-16T11:50:29;99225.91;;;18.41;84.39
60871;BME280;46714;50.118;14.462;2022-10-16T11:55:47;99226.28;;;18.55;83.80
60871;BME280;46714;50.118;14.462;2022-10-16T11:58:27;99230.19;;;18.59;84.12
60871;BME280;46714;50.118;14.462;2022-10-16T12:01:24;99227.47;;;18.65;81.97
60871;BME280;46714;50.118;14.462;2022-10-16T12:06:49;99223.50;;;18.88;80.07
60871;BME280;46714;50.118;14.462;2022-10-16T12:09:30;99227.09;;;18.93;80.29
60871;BME280;46714;50.118;14.462;2022-10-16T12:11:57;99220.75;;;18.93;80.34
60871;BME280;46714;50.118;14.462;2022-10-16T12:19:18;99217.53;;;19.06;79.45
60871;BME280;46714;50.118;14.462;2022-10-16T12:21:45;99224.13;;;19.10;79.34
60871;BME280;46714;50.118;14.462;2022-10-16T12:24:21;99218.94;;;19.14;79.12
60871;BME280;46714;50.118;14.462;2022-10-16T12:27:19;99218.41;;;19.22;82.23
60871;BME280;46714;50.118;14.462;2022-10-16T12:30:00;99217.59;;;19.27;78.50
60871;BME280;46714;50.118;14.462;2022-10-16T12:35:05;99211.28;;;19.41;77.64
60871;BME280;46714;50.118;14.462;2022-10-16T12:37:42;99210.72;;;19.44;77.36
60871;BME280;46714;50.118;14.462;2022-10-16T12:40:14;99208.53;;;19.46;78.51
60871;BME280;46714;50.118;14.462;2022-10-16T12:42:48;99220.44;;;19.47;77.65
60871;BME280;46714;50.118;14.462;2022-10-16T12:45:27;99208.53;;;19.46;76.85
60871;BME280;46714;50.118;14.462;2022-10-16T12:47:58;99211.59;;;19.45;77.69
60871;BME280;46714;50.118;14.462;2022-10-16T12:50:27;99212.66;;;19.39;79.31
60871;BME280;46714;50.118;14.462;2022-10-16T12:53:00;99201.88;;;19.32;78.50
60871;BME280;46714;50.118;14.462;2022-10-16T12:55:26;99215.38;;;19.29;79.11
60871;BME280;46714;50.118;14.462;2022-10-16T13:00:45;99215.91;;;19.20;81.48
60871;BME280;46714;50.118;14.462;2022-10-16T13:03:39;99221.13;;;19.12;81.38
60871;BME280;46714;50.118;14.462;2022-10-16T13:12:22;99222.41;;;18.94;81.15
60871;BME280;46714;50.118;14.462;2022-10-16T13:20:14;99231.56;;;18.99;84.67
60871;BME280;46714;50.118;14.462;2022-10-16T13:28:34;99238.44;;;18.97;84.33
60871;BME280;46714;50.118;14.462;2022-10-16T13:31:02;99244.47;;;18.94;84.40
60871;BME280;46714;50.118;14.462;2022-10-16T13:35:55;99248.88;;;18.90;83.81
60871;BME280;46714;50.118;14.462;2022-10-16T13:38:23;99251.63;;;18.90;84.04
60871;BME280;46714;50.118;14.462;2022-10-16T13:43:40;99251.38;;;18.91;84.22
60871;BME280;46714;50.118;14.462;2022-10-16T13:46:16;99248.34;;;18.93;83.92
60871;BME280;46714;50.118;14.462;2022-10-16T13:48:43;99257.44;;;18.93;85.96
60871;BME280;46714;50.118;14.462;2022-10-16T13:51:14;99253.03;;;18.92;84.54
60871;BME280;46714;50.118;14.462;2022-10-16T13:53:41;99248.88;;;18.90;83.13
60871;BME280;46714;50.118;14.462;2022-10-16T13:56:12;99252.19;;;18.92;83.86
60871;BME280;46714;50.118;14.462;2022-10-16T13:58:39;99258.28;;;18.94;82.20
60871;BME280;46714;50.118;14.462;2022-10-16T14:01:13;99258.28;;;18.94;83.42
60871;BME280;46714;50.118;14.462;2022-10-16T14:03:43;99260.47;;;18.92;81.77
60871;BME280;46714;50.118;14.462;2022-10-16T14:06:14;99254.69;;;18.93;81.35
60871;BME280;46714;50.118;14.462;2022-10-16T14:08:46;99268.22;;;18.95;84.18
60871;BME280;46714;50.118;14.462;2022-10-16T14:11:22;99262.41;;;18.91;81.97
60871;BME280;46714;50.118;14.462;2022-10-16T14:13:49;99272.63;;;18.91;83.46
60871;BME280;46714;50.118;14.462;2022-10-16T14:16:16;99265.97;;;18.87;83.50
60871;BME280;46714;50.118;14.462;2022-10-16T14:18:56;99269.25;;;18.83;84.52
60871;BME280;46714;50.118;14.462;2022-10-16T14:21:24;99270.88;;;18.79;82.57
60871;BME280;46714;50.118;14.462;2022-10-16T14:23:51;99274.75;;;18.78;85.32
60871;BME280;46714;50.118;14.462;2022-10-16T14:26:19;99268.31;;;18.73;85.92
60871;BME280;46714;50.118;14.462;2022-10-16T14:28:47;99263.31;;;18.65;86.85
60871;BME280;46714;50.118;14.462;2022-10-16T14:33:53;99269.88;;;18.53;86.75
60871;BME280;46714;50.118;14.462;2022-10-16T14:36:19;99268.44;;;18.51;84.48
60871;BME280;46714;50.118;14.462;2022-10-16T14:39:03;99267.34;;;18.47;86.48
60871;BME280;46714;50.118;14.462;2022-10-16T14:41:31;99266.19;;;18.42;86.10
60871;BME280;46714;50.118;14.462;2022-10-16T14:44:00;99264.25;;;18.43;86.32